Time;durP1;ratioP1;P1;durP2;ratioP2;P2;SDS_P1;SDS_P2;PMS_P1;PMS_P2;Temp;Humidity;BMP_temperature;BMP_pressure;BME280_temperature;BME280_humidity;BME280_pressure;Samples;Min_cycle;Max_cycle;Signal;HPM_P1;HPM_P2
2021/01/21 00:00:56;;;;;;;4.18;1.40;;;;;;;9.42;65.66;98825.78;5079560;28;20086;-78
2021/01/21 00:03:21;;;;;;;3.50;1.52;;;;;;;9.51;65.65;98829.53;5092602;28;20012;-77
2021/01/21 00:05:46;;;;;;;3.73;1.50;;;;;;;9.50;65.31;98810.91;5078988;28;20037;-78
2021/01/21 00:08:12;;;;;;;5.47;1.53;;;;;;;9.45;65.76;98800.94;5080796;28;20031;-78
2021/01/21 00:10:37;;;;;;;3.13;1.27;;;;;;;9.41;66.16;98797.19;5079256;28;20115;-78
2021/01/21 00:13:03;;;;;;;3.63;1.40;;;;;;;9.39;66.00;98798.53;5079836;28;20034;-78
2021/01/21 00:15:28;;;;;;;3.97;1.53;;;;;;;9.51;65.53;98793.66;5079597;28;20037;-76
2021/01/21 00:17:53;;;;;;;5.33;1.37;;;;;;;9.48;65.92;98784.22;5079507;28;20296;-78
2021/01/21 00:20:20;;;;;;;4.50;1.37;;;;;;;9.59;65.04;98770.69;5080565;28;20104;-78
2021/01/21 00:22:48;;;;;;;4.75;1.52;;;;;;;9.41;65.69;98778.28;5078165;28;20359;-78
2021/01/21 00:25:16;;;;;;;5.05;1.63;;;;;;;9.42;65.97;98763.75;5079928;28;20024;-78
2021/01/21 00:27:42;;;;;;;5.03;1.50;;;;;;;9.56;64.79;98747.75;5078264;28;20463;-78
2021/01/21 00:30:13;;;;;;;4.27;1.37;;;;;;;9.66;64.52;98745.06;5081827;28;20028;-77
2021/01/21 00:32:39;;;;;;;4.97;1.88;;;;;;;9.66;64.57;98736.97;5089252;28;20322;-78
2021/01/21 00:35:07;;;;;;;2.35;1.05;;;;;;;9.71;64.75;98736.94;5079293;28;20047;-78
2021/01/21 00:37:33;;;;;;;4.55;1.60;;;;;;;9.89;63.21;98721.19;5070415;28;20016;-78
2021/01/21 00:39:59;;;;;;;4.10;1.65;;;;;;;9.93;63.51;98697.94;5078957;28;20434;-78
2021/01/21 00:42:27;;;;;;;11.00;1.40;;;;;;;9.94;63.04;98703.06;5079426;28;20020;-78
2021/01/21 00:44:52;;;;;;;2.83;1.25;;;;;;;10.04;62.94;98684.09;5078736;28;20108;-78
2021/01/21 00:47:18;;;;;;;3.47;1.57;;;;;;;9.95;63.13;98668.75;5078585;28;20028;-78
2021/01/21 00:49:43;;;;;;;6.28;1.20;;;;;;;9.89;62.96;98680.69;5078180;28;20020;-78
2021/01/21 00:52:09;;;;;;;3.50;1.40;;;;;;;9.86;62.93;98656.94;5079535;28;20318;-78
2021/01/21 00:54:34;;;;;;;3.57;1.30;;;;;;;9.74;63.42;98641.09;5076428;28;20442;-78
2021/01/21 00:57:00;;;;;;;6.67;1.50;;;;;;;9.79;62.82;98644.56;5077659;28;20023;-78
2021/01/21 00:59:34;;;;;;;4.20;1.40;;;;;;;9.85;62.50;98631.84;5075199;28;20328;-78
2021/01/21 01:02:00;;;;;;;3.17;1.05;;;;;;;9.83;62.62;98625.94;5077540;28;20284;-78
2021/01/21 01:04:26;;;;;;;4.43;1.27;;;;;;;9.83;63.21;98612.44;5076090;28;20032;-78
2021/01/21 01:06:52;;;;;;;4.45;1.48;;;;;;;9.90;62.33;98618.31;5077004;28;20032;-78
2021/01/21 01:09:17;;;;;;;4.43;1.37;;;;;;;9.89;62.64;98611.31;5077719;28;20020;-78
2021/01/21 01:11:51;;;;;;;6.57;1.40;;;;;;;9.84;62.18;98603.25;5077470;28;20025;-79
2021/01/21 01:14:17;;;;;;;3.38;1.15;;;;;;;9.82;62.59;98600.03;5076808;28;20373;-78
2021/01/21 01:16:43;;;;;;;4.97;1.38;;;;;;;9.82;62.49;98600.03;5076789;28;20032;-78
2021/01/21 01:19:08;;;;;;;3.30;1.23;;;;;;;9.83;62.67;98600.84;5076305;28;20414;-79
2021/01/21 01:21:33;;;;;;;6.80;1.70;;;;;;;9.93;61.95;98588.06;5075119;28;20032;-78
2021/01/21 01:23:59;;;;;;;4.30;1.50;;;;;;;9.97;62.03;98582.91;5076131;28;20082;-78
2021/01/21 01:26:27;;;;;;;5.30;1.40;;;;;;;9.99;61.65;98576.13;5075770;28;20020;-78
2021/01/21 01:28:52;;;;;;;4.20;1.63;;;;;;;10.05;61.76;98580.41;5075868;28;20322;-78
2021/01/21 01:31:18;;;;;;;4.23;1.43;;;;;;;10.14;60.89;98571.69;5076673;28;20024;-78
2021/01/21 01:33:46;;;;;;;3.03;1.00;;;;;;;10.10;61.33;98576.84;5076445;28;20051;-78
2021/01/21 01:36:11;;;;;;;3.55;1.65;;;;;;;10.10;61.29;98573.34;5075862;28;20315;-78
2021/01/21 01:38:37;;;;;;;7.47;1.40;;;;;;;10.12;61.40;98561.19;5076705;28;20043;-78
2021/01/21 01:41:04;;;;;;;5.90;1.53;;;;;;;10.14;60.75;98555.50;5084902;28;20028;-78
2021/01/21 01:43:35;;;;;;;5.30;1.30;;;;;;;10.16;60.54;98556.84;5076638;28;20134;-78
2021/01/21 01:46:01;;;;;;;3.70;1.58;;;;;;;10.37;60.48;98543.16;5076618;28;20035;-78
2021/01/21 01:48:26;;;;;;;4.07;1.40;;;;;;;10.53;58.94;98540.00;5075743;28;20040;-77
2021/01/21 01:50:52;;;;;;;3.30;1.43;;;;;;;10.62;58.78;98539.38;5075940;28;20043;-78
2021/01/21 01:53:20;;;;;;;5.28;1.25;;;;;;;10.61;58.93;98535.06;5075588;28;20028;-78
2021/01/21 01:55:46;;;;;;;3.17;1.17;;;;;;;10.60;60.44;98526.16;5075010;28;20370;-78
2021/01/21 01:58:18;;;;;;;1.77;0.97;;;;;;;10.49;61.77;98525.47;5075545;28;20024;-78
2021/01/21 02:00:44;;;;;;;5.38;1.58;;;;;;;10.37;63.21;98510.75;5074642;28;20109;-78
2021/01/21 02:03:16;;;;;;;3.58;1.38;;;;;;;10.48;61.25;98504.94;5075239;28;20029;-78
2021/01/21 02:05:44;;;;;;;3.17;1.30;;;;;;;10.51;61.76;98498.16;5075600;28;20066;-78
2021/01/21 02:08:10;;;;;;;3.58;1.15;;;;;;;10.54;61.58;98509.22;5075342;28;20021;-78
2021/01/21 02:10:35;;;;;;;4.23;1.50;;;;;;;10.69;60.01;98510.13;5075662;28;20372;-79
2021/01/21 02:13:12;;;;;;;3.77;1.40;;;;;;;10.69;60.84;98499.31;5074372;28;20302;-78
2021/01/21 02:15:51;;;;;;;3.92;1.20;;;;;;;10.83;59.72;98494.78;5072887;28;20271;-79
2021/01/21 02:18:30;;;;;;;3.70;1.13;;;;;;;10.86;59.97;98480.72;5075934;28;20028;-78
2021/01/21 02:21:07;;;;;;;3.17;1.13;;;;;;;10.95;59.54;98470.84;5075810;28;20029;-77
2021/01/21 02:23:54;;;;;;;2.90;1.25;;;;;;;10.85;60.07;98465.59;5075041;28;20042;-78
2021/01/21 02:26:33;;;;;;;3.45;1.23;;;;;;;10.88;60.50;98464.19;5074843;28;20025;-78
2021/01/21 02:29:20;;;;;;;8.30;1.42;;;;;;;10.86;59.95;98464.47;5075093;28;20333;-78
2021/01/21 02:32:01;;;;;;;5.15;1.52;;;;;;;11.03;61.00;98455.91;5075451;28;20035;-77
2021/01/21 02:35:03;;;;;;;3.50;1.13;;;;;;;11.00;61.43;98448.34;5073257;28;20056;-78
2021/01/21 02:37:30;;;;;;;3.85;1.27;;;;;;;11.02;60.86;98457.75;5016604;28;20470;-79
2021/01/21 02:39:58;;;;;;;5.60;1.50;;;;;;;11.02;60.38;98448.84;5050325;28;20059;-78
2021/01/21 02:42:24;;;;;;;3.67;1.48;;;;;;;11.02;60.94;98448.84;5039109;28;20037;-78
2021/01/21 02:44:50;;;;;;;7.60;1.00;;;;;;;11.17;59.81;98429.69;5022498;28;20107;-78
2021/01/21 02:47:17;;;;;;;4.53;1.23;;;;;;;11.23;59.86;98450.19;5037454;28;20037;-78
2021/01/21 02:49:50;;;;;;;5.13;1.58;;;;;;;11.32;59.03;98456.53;5054368;28;20162;-78
2021/01/21 02:52:32;;;;;;;6.53;1.25;;;;;;;11.28;60.08;98441.19;5036501;28;20037;-79
2021/01/21 02:55:14;;;;;;;5.82;0.90;;;;;;;11.32;59.70;98448.44;5041748;28;20505;-78
2021/01/21 02:58:05;;;;;;;2.13;1.40;;;;;;;11.24;60.79;98453.69;5053184;28;20037;-78
2021/01/21 03:00:32;;;;;;;3.42;1.38;;;;;;;11.17;62.24;98442.41;5043847;28;20037;-79
2021/01/21 03:03:00;;;;;;;2.88;1.27;;;;;;;11.09;61.52;98431.19;5046256;28;20394;-78
2021/01/21 03:05:27;;;;;;;3.33;1.23;;;;;;;11.07;61.75;98433.34;5039539;28;20415;-78
2021/01/21 03:07:55;;;;;;;2.63;1.30;;;;;;;11.03;61.97;98420.72;5040661;28;20037;-78
2021/01/21 03:10:27;;;;;;;10.25;1.30;;;;;;;11.18;61.52;98396.16;5041114;28;20396;-79
2021/01/21 03:12:56;;;;;;;4.55;1.20;;;;;;;11.22;60.53;98420.69;5041099;28;20063;-79
2021/01/21 03:15:22;;;;;;;3.97;1.13;;;;;;;11.17;61.21;98413.47;5079120;28;20046;-79
2021/01/21 03:17:48;;;;;;;6.28;1.17;;;;;;;11.22;60.65;98424.19;5085166;28;20036;-79
2021/01/21 03:20:17;;;;;;;5.82;1.08;;;;;;;11.29;59.97;98400.31;5079747;28;20029;-79
2021/01/21 03:22:43;;;;;;;2.97;1.20;;;;;;;11.24;60.38;98430.16;5095685;28;20103;-79
2021/01/21 03:25:09;;;;;;;3.03;1.08;;;;;;;11.21;61.47;98400.16;5078926;28;20375;-79
2021/01/21 03:27:38;;;;;;;;;;;;;;;11.09;62.20;98420.34;5049600;28;20051;-79
2021/01/21 03:30:05;;;;;;;1.80;0.80;;;;;;;11.05;63.04;98408.50;5084667;28;19916;-78
2021/01/21 03:32:30;;;;;;;4.40;1.20;;;;;;;11.03;63.01;98448.56;5094117;28;20482;-79
2021/01/21 03:34:56;;;;;;;2.00;1.10;;;;;;;10.94;63.94;98414.38;5086282;28;20036;-79
2021/01/21 03:37:21;;;;;;;3.33;1.20;;;;;;;10.88;64.46;98424.44;5091259;28;20043;-79
2021/01/21 03:39:47;;;;;;;4.47;1.60;;;;;;;10.82;65.27;98425.59;5088695;28;20024;-79
2021/01/21 03:42:12;;;;;;;2.33;1.10;;;;;;;10.71;67.29;98443.88;5089074;28;20036;-78
2021/01/21 03:44:37;;;;;;;3.63;0.90;;;;;;;10.45;69.93;98431.78;5089125;28;20082;-79
2021/01/21 03:47:03;;;;;;;6.13;1.10;;;;;;;10.28;71.25;98435.72;5082755;28;20037;-79
2021/01/21 03:49:28;;;;;;;3.00;1.10;;;;;;;10.15;73.09;98422.06;5088002;28;20315;-79
2021/01/21 03:51:53;;;;;;;4.80;1.43;;;;;;;9.85;74.65;98436.69;5084040;28;20113;-79
2021/01/21 03:54:19;;;;;;;6.43;1.43;;;;;;;9.73;75.97;98437.06;5093595;28;20028;-79
2021/01/21 03:56:44;;;;;;;4.30;1.70;;;;;;;9.70;75.31;98443.03;5090429;28;20036;-78
2021/01/21 03:59:09;;;;;;;2.97;1.03;;;;;;;9.71;75.50;98464.34;5103032;28;20028;-79
2021/01/21 04:01:35;;;;;;;3.50;1.30;;;;;;;9.68;75.60;98456.81;5084501;28;20016;-80
2021/01/21 04:04:00;;;;;;;3.03;1.50;;;;;;;9.75;75.33;98478.88;5097699;28;20437;-79
2021/01/21 04:06:25;;;;;;;2.80;1.43;;;;;;;9.70;77.20;98534.78;5082455;28;20024;-79
2021/01/21 04:08:51;;;;;;;9.33;1.73;;;;;;;8.47;100.00;98710.47;5086147;28;20071;-79
2021/01/21 04:11:16;;;;;;;7.00;1.57;;;;;;;-144.05;100.00;64977.69;5095807;28;20407;-80
2021/01/21 04:13:42;;;;;;;5.13;1.63;;;;;;;-144.05;100.00;64977.69;5098402;28;20422;-79
2021/01/21 04:16:07;;;;;;;7.07;1.40;;;;;;;-144.05;100.00;64977.69;5085027;28;20089;-79
2021/01/21 04:18:33;;;;;;;8.40;1.42;;;;;;;-144.05;100.00;64977.69;5084957;28;20035;-80
2021/01/21 04:20:58;;;;;;;3.63;0.90;;;;;;;-144.05;100.00;64977.69;5097097;28;20429;-80
2021/01/21 04:23:24;;;;;;;4.07;0.77;;;;;;;-144.05;100.00;64977.69;5096955;28;20042;-80
2021/01/21 04:25:50;;;;;;;4.13;0.80;;;;;;;-144.05;100.00;64977.69;5094840;28;20051;-79
2021/01/21 04:28:15;;;;;;;5.95;0.90;;;;;;;-144.05;100.00;64977.69;5089836;28;20107;-79
2021/01/21 04:30:40;;;;;;;4.23;0.93;;;;;;;-144.05;100.00;64977.69;5096013;28;20398;-78
2021/01/21 04:33:06;;;;;;;2.73;0.70;;;;;;;-144.05;100.00;64977.69;5098469;28;20051;-78
2021/01/21 04:35:31;;;;;;;3.60;0.80;;;;;;;-144.05;100.00;64977.69;5095563;28;20036;-78
2021/01/21 04:37:58;;;;;;;6.57;1.20;;;;;;;-144.05;100.00;64977.69;5096907;28;20036;-78
2021/01/21 04:40:25;;;;;;;3.35;0.85;;;;;;;-144.05;100.00;64977.69;5089834;28;20036;-78
2021/01/21 04:42:50;;;;;;;2.42;0.88;;;;;;;-144.05;100.00;64977.69;5096367;28;20036;-79
2021/01/21 04:45:15;;;;;;;6.90;1.20;;;;;;;-144.05;100.00;64977.69;5094132;28;20029;-78
2021/01/21 04:47:41;;;;;;;6.57;1.30;;;;;;;-144.05;100.00;64977.69;5093570;28;20093;-79
2021/01/21 04:50:07;;;;;;;4.63;0.70;;;;;;;-144.05;100.00;64977.69;5091797;28;20031;-79
2021/01/21 04:52:37;;;;;;;3.97;0.80;;;;;;;-144.05;100.00;64977.69;5091690;28;20039;-78
2021/01/21 04:55:08;;;;;;;5.32;0.90;;;;;;;-144.05;100.00;64977.69;5096664;28;20051;-78
2021/01/21 04:57:47;;;;;;;3.63;0.98;;;;;;;-144.05;100.00;64977.69;5090143;28;20054;-78
2021/01/21 05:00:13;;;;;;;6.10;1.17;;;;;;;-144.05;100.00;64977.69;5089195;28;20035;-78
2021/01/21 05:02:40;;;;;;;5.22;1.05;;;;;;;-144.05;100.00;64977.69;5067361;28;20025;-78
2021/01/21 05:05:10;;;;;;;5.95;0.90;;;;;;;-144.05;100.00;64977.69;5086377;28;20097;-77
2021/01/21 05:07:37;;;;;;;4.78;0.95;;;;;;;-144.05;100.00;64977.69;5081520;28;20028;-78
2021/01/21 05:10:04;;;;;;;3.67;1.00;;;;;;;-144.05;100.00;64977.69;5077416;28;20062;-79
2021/01/21 05:12:29;;;;;;;7.25;1.05;;;;;;;-144.05;100.00;64977.69;5078174;28;20318;-79
2021/01/21 05:14:54;;;;;;;7.40;1.17;;;;;;;-144.05;100.00;64977.69;5077211;28;20039;-79
2021/01/21 05:17:20;;;;;;;3.37;0.90;;;;;;;-144.05;100.00;64977.69;5077325;28;20165;-79
2021/01/21 05:19:46;;;;;;;8.20;1.27;;;;;;;-144.05;100.00;64977.69;5077558;28;20044;-79
2021/01/21 05:22:14;;;;;;;5.50;1.00;;;;;;;-144.05;100.00;64977.69;5076491;28;20017;-80
2021/01/21 05:24:40;;;;;;;7.75;1.20;;;;;;;-144.05;100.00;64977.69;5077820;28;20058;-79
2021/01/21 05:27:05;;;;;;;8.27;1.90;;;;;;;-144.05;100.00;64977.69;5078143;28;20032;-79
2021/01/21 05:29:31;;;;;;;9.50;1.43;;;;;;;-144.05;100.00;64977.69;5076760;28;20047;-80
2021/01/21 05:31:56;;;;;;;3.90;0.83;;;;;;;-144.05;100.00;64977.69;5076766;28;20286;-80
2021/01/21 05:34:22;;;;;;;7.67;1.43;;;;;;;-144.05;100.00;64977.69;5077437;28;20299;-80
2021/01/21 05:36:47;;;;;;;11.83;2.17;;;;;;;-144.05;100.00;64977.69;5076714;28;20047;-80
2021/01/21 05:39:13;;;;;;;10.95;1.40;;;;;;;-144.05;100.00;64977.69;5077531;28;20105;-80
2021/01/21 05:41:39;;;;;;;7.90;1.47;;;;;;;-144.05;100.00;64977.69;5077697;28;20100;-79
2021/01/21 05:44:06;;;;;;;11.40;1.83;;;;;;;-144.05;100.00;64977.69;5076842;28;20071;-80
2021/01/21 05:46:33;;;;;;;11.02;1.83;;;;;;;-144.05;100.00;64977.69;5083845;28;20440;-81
2021/01/21 05:48:59;;;;;;;7.45;1.38;;;;;;;-144.05;100.00;64977.69;5096289;28;20105;-80
2021/01/21 05:51:24;;;;;;;14.40;2.00;;;;;;;-144.05;100.00;64977.69;5081963;28;20123;-80
2021/01/21 05:53:53;;;;;;;11.43;2.13;;;;;;;-144.05;100.00;64977.69;5084623;28;20037;-80
2021/01/21 05:56:21;;;;;;;7.57;1.73;;;;;;;-144.05;100.00;64977.69;5079225;28;20337;-80
2021/01/21 05:58:49;;;;;;;8.80;1.60;;;;;;;-144.05;100.00;64977.69;5096117;28;20314;-80
2021/01/21 06:01:15;;;;;;;8.70;1.70;;;;;;;-144.05;100.00;64977.69;5081274;28;20090;-79
2021/01/21 06:03:41;;;;;;;9.52;2.00;;;;;;;-144.05;100.00;64977.69;5087482;28;20020;-80
2021/01/21 06:06:07;;;;;;;8.88;2.15;;;;;;;-144.05;100.00;64977.69;5075740;28;20037;-80
2021/01/21 06:08:42;;;;;;;;;;;;;;;-144.05;100.00;64977.69;5092336;28;20051;-80
2021/01/21 06:11:10;;;;;;;8.88;1.65;;;;;;;-144.05;100.00;64977.69;5082356;28;19912;-80
2021/01/21 06:13:41;;;;;;;6.93;1.45;;;;;;;-144.05;100.00;64977.69;5107650;28;20012;-80
2021/01/21 06:16:08;;;;;;;10.93;2.58;;;;;;;-144.05;100.00;64977.69;5099573;28;20119;-80
2021/01/21 06:18:34;;;;;;;10.02;2.25;;;;;;;-144.05;100.00;64977.69;5093097;28;20016;-80
2021/01/21 06:21:01;;;;;;;7.32;1.45;;;;;;;-144.05;100.00;64977.69;5084833;28;20032;-80
2021/01/21 06:23:30;;;;;;;7.82;2.22;;;;;;;-144.05;100.00;64977.69;5093527;28;20050;-80
2021/01/21 06:25:57;;;;;;;11.50;2.22;;;;;;;-144.05;100.00;64977.69;5095002;28;20081;-79
2021/01/21 06:28:24;;;;;;;10.68;1.70;;;;;;;-144.05;100.00;64977.69;5095292;28;20040;-79
2021/01/21 06:30:55;;;;;;;9.95;1.60;;;;;;;-144.05;100.00;64977.69;5082527;28;20464;-80
2021/01/21 06:33:26;;;;;;;14.55;2.42;;;;;;;-144.05;100.00;64977.69;5094935;28;20110;-80
2021/01/21 06:35:59;;;;;;;9.48;1.50;;;;;;;-144.05;100.00;64977.69;5092981;28;20032;-80
2021/01/21 06:38:29;;;;;;;12.13;2.25;;;;;;;-144.05;100.00;64977.69;5090058;28;20107;-80
2021/01/21 06:41:00;;;;;;;11.50;2.42;;;;;;;-144.05;100.00;64977.69;5076052;28;20040;-79
2021/01/21 06:43:32;;;;;;;12.38;2.67;;;;;;;-144.05;100.00;64977.69;5088805;28;20020;-80
2021/01/21 06:45:57;;;;;;;6.13;1.42;;;;;;;-144.05;100.00;64977.69;5089524;28;20040;-79
2021/01/21 06:48:23;;;;;;;14.77;2.08;;;;;;;-144.05;100.00;64977.69;5096355;28;20024;-80
2021/01/21 06:50:50;;;;;;;13.07;2.20;;;;;;;-144.05;100.00;64977.69;5082952;28;20499;-80
2021/01/21 06:53:15;;;;;;;;;;;;;;;-144.05;100.00;64977.69;5089752;28;20028;-80
2021/01/21 06:55:47;;;;;;;9.57;2.38;;;;;;;-144.05;100.00;64977.69;5082569;28;20011;-80
2021/01/21 06:58:13;;;;;;;15.18;1.90;;;;;;;-144.05;100.00;64977.69;5087082;28;20406;-81
2021/01/21 07:00:42;;;;;;;9.13;2.08;;;;;;;-144.05;100.00;64977.69;5075922;28;20040;-83
2021/01/21 07:03:26;;;;;;;10.63;2.40;;;;;;;-144.05;100.00;64977.69;5085627;28;20027;-81
2021/01/21 07:05:59;;;;;;;14.10;2.72;;;;;;;-144.05;100.00;64977.69;5077402;28;20020;-80
2021/01/21 07:08:25;;;;;;;11.13;2.17;;;;;;;-144.05;100.00;64977.69;5081403;28;20016;-81
2021/01/21 07:10:55;;;;;;;11.93;2.33;;;;;;;-144.05;100.00;64977.69;5079175;28;20035;-82
2021/01/21 07:13:23;;;;;;;11.48;2.53;;;;;;;-144.05;100.00;64977.69;5079835;28;20052;-80
2021/01/21 07:15:51;;;;;;;10.63;2.30;;;;;;;-144.05;100.00;64977.69;5078919;28;20024;-81
2021/01/21 07:18:22;;;;;;;12.50;2.78;;;;;;;-144.05;100.00;64977.69;5080358;28;20033;-80
2021/01/21 07:21:07;;;;;;;10.82;2.05;;;;;;;-144.05;100.00;64977.69;5089739;28;20019;-81
2021/01/21 07:23:40;;;;;;;9.07;2.00;;;;;;;-144.05;100.00;64977.69;5087694;28;20025;-81
2021/01/21 07:26:20;;;;;;;10.35;2.00;;;;;;;-144.05;100.00;64977.69;5078108;28;20033;-81
2021/01/21 07:28:54;;;;;;;18.80;3.80;;;;;;;-144.05;100.00;64977.69;5078815;28;20032;-84
2021/01/21 07:31:23;;;;;;;15.60;2.45;;;;;;;-144.05;100.00;64977.69;5077738;28;20044;-84
2021/01/21 07:33:48;;;;;;;13.00;2.30;;;;;;;-144.05;100.00;64977.69;5077645;28;20144;-80
2021/01/21 07:36:29;;;;;;;14.57;2.53;;;;;;;-144.05;100.00;64977.69;5077979;28;20107;-80
2021/01/21 07:38:55;;;;;;;9.55;2.17;;;;;;;-144.05;100.00;64977.69;5078429;28;20040;-81
2021/01/21 07:41:42;;;;;;;11.75;2.33;;;;;;;-144.05;100.00;64977.69;5085765;28;20346;-78
2021/01/21 07:44:08;;;;;;;14.98;2.75;;;;;;;-144.05;100.00;64977.69;5075753;28;20085;-81
2021/01/21 07:46:33;;;;;;;17.25;2.60;;;;;;;-144.05;100.00;64977.69;5065625;28;20411;-79
2021/01/21 07:49:25;;;;;;;14.97;2.40;;;;;;;-144.05;100.00;64977.69;5073787;28;20039;-80
2021/01/21 07:52:03;;;;;;;15.88;2.97;;;;;;;-144.05;100.00;64977.69;5069295;28;20032;-82
2021/01/21 07:54:30;;;;;;;15.48;2.70;;;;;;;-144.05;100.00;64977.69;5079340;28;20078;-79
2021/01/21 07:56:58;;;;;;;14.15;2.53;;;;;;;-144.05;100.00;64977.69;5079994;28;20642;-80
2021/01/21 07:59:24;;;;;;;14.05;2.65;;;;;;;-144.05;100.00;64977.69;5083601;28;20268;-80
2021/01/21 08:01:57;;;;;;;16.70;3.08;;;;;;;-144.05;100.00;64977.69;5088478;28;20066;-80
2021/01/21 08:04:26;;;;;;;14.93;2.42;;;;;;;-144.05;100.00;64977.69;5077229;28;20044;-79
2021/01/21 08:06:56;;;;;;;16.63;2.65;;;;;;;-144.05;100.00;64977.69;5076426;28;20027;-79
2021/01/21 08:09:24;;;;;;;12.60;2.40;;;;;;;-144.05;100.00;64977.69;5082535;28;20422;-79
2021/01/21 08:11:52;;;;;;;12.35;2.95;;;;;;;-144.05;100.00;64977.69;5089901;28;20034;-78
2021/01/21 08:14:20;;;;;;;11.88;2.35;;;;;;;-144.05;100.00;64977.69;5083830;28;20365;-78
2021/01/21 08:16:48;;;;;;;11.32;2.50;;;;;;;-144.05;100.00;64977.69;5086120;28;20051;-81
2021/01/21 08:19:13;;;;;;;22.83;3.25;;;;;;;-144.05;100.00;64977.69;5085062;28;20040;-78
2021/01/21 08:21:39;;;;;;;17.53;2.37;;;;;;;-144.05;100.00;64977.69;5085530;28;20024;-78
2021/01/21 08:24:08;;;;;;;15.70;3.07;;;;;;;-144.05;100.00;64977.69;5087380;28;20036;-78
2021/01/21 08:26:39;;;;;;;19.70;2.60;;;;;;;-144.05;100.00;64977.69;5083593;28;20275;-80
2021/01/21 08:29:10;;;;;;;17.85;2.63;;;;;;;-144.05;100.00;64977.69;5090344;28;20032;-77
2021/01/21 08:31:47;;;;;;;16.65;2.97;;;;;;;-144.05;100.00;64977.69;5100625;28;20031;-78
2021/01/21 08:34:21;;;;;;;11.90;2.00;;;;;;;-144.05;100.00;64977.69;5087919;28;20464;-78
2021/01/21 08:36:46;;;;;;;14.38;2.65;;;;;;;-144.05;100.00;64977.69;5078070;28;20036;-78
2021/01/21 08:39:12;;;;;;;13.43;3.05;;;;;;;-144.05;100.00;64977.69;5084236;28;20028;-78
2021/01/21 08:41:39;;;;;;;19.15;2.90;;;;;;;-144.05;100.00;64977.69;5083276;28;20099;-78
2021/01/21 08:44:05;;;;;;;10.95;2.20;;;;;;;-144.05;100.00;64977.69;5086289;28;20423;-79
2021/01/21 08:46:30;;;;;;;19.13;3.35;;;;;;;-144.05;100.00;64977.69;5097589;28;20103;-78
2021/01/21 08:49:10;;;;;;;14.90;2.53;;;;;;;-144.05;100.00;64977.69;5095189;28;20325;-78
2021/01/21 08:51:37;;;;;;;11.80;2.30;;;;;;;-144.05;100.00;64977.69;5097331;28;20028;-78
2021/01/21 08:54:19;;;;;;;22.80;3.33;;;;;;;-144.05;100.00;64977.69;5097336;28;20036;-78
2021/01/21 08:57:11;;;;;;;20.33;2.90;;;;;;;-144.05;100.00;64977.69;5071265;28;20455;-78
2021/01/21 08:59:38;;;;;;;10.23;2.42;;;;;;;-144.05;100.00;64977.69;5084185;28;20040;-78
2021/01/21 09:02:04;;;;;;;11.27;2.50;;;;;;;-144.05;100.00;64977.69;5097298;28;20024;-78
2021/01/21 09:04:31;;;;;;;13.77;2.85;;;;;;;-144.05;100.00;64977.69;5098131;28;20111;-78
2021/01/21 09:06:58;;;;;;;;;;;;;;;-144.05;100.00;64977.69;5097827;28;20035;-79
2021/01/21 09:09:35;;;;;;;15.73;2.50;;;;;;;-144.05;100.00;64977.69;5088874;28;19954;-78
2021/01/21 09:12:17;;;;;;;;;;;;;;;-144.05;100.00;64977.69;5077239;28;20063;-78
2021/01/21 09:14:43;;;;;;;12.10;2.55;;;;;;;-144.05;100.00;64977.69;5098687;28;19943;-78
2021/01/21 09:17:15;;;;;;;;;;;;;;;-144.05;100.00;64977.69;5100441;28;20085;-80
2021/01/21 09:19:43;;;;;;;12.57;2.78;;;;;;;-144.05;100.00;64977.69;5095037;28;19911;-78
2021/01/21 09:22:13;;;;;;;19.27;2.95;;;;;;;-144.05;100.00;64977.69;5090282;28;20032;-80
2021/01/21 09:24:54;;;;;;;15.73;3.58;;;;;;;-144.05;100.00;64977.69;5118275;28;20022;-79
2021/01/21 09:27:22;;;;;;;16.30;2.92;;;;;;;-144.05;100.00;64977.69;5073501;28;20113;-78
2021/01/21 09:30:00;;;;;;;15.18;2.67;;;;;;;-144.05;100.00;64977.69;5100108;28;20028;-77
2021/01/21 09:32:32;;;;;;;15.82;3.00;;;;;;;-144.05;100.00;64977.69;5104146;28;20031;-78
2021/01/21 09:35:00;;;;;;;10.68;2.53;;;;;;;-144.05;100.00;64977.69;5100098;28;20048;-81
2021/01/21 09:37:33;;;;;;;16.08;3.47;;;;;;;-144.05;100.00;64977.69;5076929;28;20023;-81
2021/01/21 09:39:58;;;;;;;13.18;2.75;;;;;;;-144.05;100.00;64977.69;5118049;28;20066;-83
2021/01/21 09:42:27;;;;;;;17.42;3.38;;;;;;;-144.05;100.00;64977.69;5090136;28;20417;-83
2021/01/21 09:44:52;;;;;;;15.98;2.90;;;;;;;-144.05;100.00;64977.69;5096550;28;20058;-80
2021/01/21 09:47:18;;;;;;;7.90;2.27;;;;;;;-144.05;100.00;64977.69;5099330;28;20055;-77
2021/01/21 09:49:45;;;;;;;13.20;2.83;;;;;;;-144.05;100.00;64977.69;5099560;28;20156;-78
2021/01/21 09:52:11;;;;;;;12.38;2.90;;;;;;;-144.05;100.00;64977.69;5091009;28;20035;-78
2021/01/21 09:54:37;;;;;;;10.95;2.10;;;;;;;-144.05;100.00;64977.69;5096815;28;20035;-80
2021/01/21 09:57:06;;;;;;;12.13;2.33;;;;;;;-144.05;100.00;64977.69;5117844;28;20020;-79
2021/01/21 09:59:31;;;;;;;9.95;1.88;;;;;;;-144.05;100.00;64977.69;5099437;28;20277;-80
2021/01/21 10:02:00;;;;;;;11.50;1.77;;;;;;;-144.05;100.00;64977.69;5106172;28;20032;-79
2021/01/21 10:04:25;;;;;;;10.40;2.40;;;;;;;-144.05;100.00;64977.69;5093581;28;20039;-79
2021/01/21 10:06:52;;;;;;;11.97;2.60;;;;;;;-144.05;100.00;64977.69;5093266;28;20310;-79
2021/01/21 10:09:17;;;;;;;12.30;2.53;;;;;;;-144.05;100.00;64977.69;5090985;28;20039;-78
2021/01/21 10:11:42;;;;;;;9.80;2.13;;;;;;;-144.05;100.00;64977.69;5080204;28;20383;-80
2021/01/21 10:14:08;;;;;;;12.73;2.53;;;;;;;-144.05;100.00;64977.69;5081130;28;20024;-79
2021/01/21 10:16:34;;;;;;;13.77;2.42;;;;;;;-144.05;100.00;64977.69;5095853;28;20313;-79
2021/01/21 10:18:59;;;;;;;9.83;1.70;;;;;;;-144.05;100.00;64977.69;5098994;28;20040;-78
2021/01/21 10:21:26;;;;;;;8.38;1.98;;;;;;;-144.05;100.00;64977.69;5118057;28;20077;-78
2021/01/21 10:23:52;;;;;;;16.65;2.20;;;;;;;-144.05;100.00;64977.69;5105902;28;20451;-78
2021/01/21 10:26:18;;;;;;;8.98;2.03;;;;;;;-144.05;100.00;64977.69;5083253;28;20055;-77
2021/01/21 10:28:43;;;;;;;13.05;2.00;;;;;;;-144.05;100.00;64977.69;5099926;28;20069;-79
2021/01/21 10:31:09;;;;;;;14.40;2.57;;;;;;;-144.05;100.00;64977.69;5104436;28;20031;-79
2021/01/21 10:33:36;;;;;;;10.52;2.13;;;;;;;-144.05;100.00;64977.69;5088357;28;20095;-78
2021/01/21 10:36:07;;;;;;;8.65;2.08;;;;;;;-144.05;100.00;64977.69;5125590;28;20105;-78
2021/01/21 10:38:38;;;;;;;12.32;2.65;;;;;;;-144.05;100.00;64977.69;5105995;28;20035;-79
2021/01/21 10:41:04;;;;;;;11.68;2.03;;;;;;;-144.05;100.00;64977.69;5099256;28;20023;-79
2021/01/21 10:43:36;;;;;;;13.40;2.28;;;;;;;-144.05;100.00;64977.69;5088869;28;20026;-78
2021/01/21 10:46:05;;;;;;;14.07;2.13;;;;;;;-144.05;100.00;64977.69;5095102;28;20110;-79
2021/01/21 10:48:30;;;;;;;8.32;1.90;;;;;;;-144.05;100.00;64977.69;5115543;28;20024;-79
2021/01/21 10:51:00;;;;;;;13.43;2.03;;;;;;;-144.05;100.00;64977.69;5098951;28;20015;-79
2021/01/21 10:53:25;;;;;;;9.05;1.95;;;;;;;-144.05;100.00;64977.69;5094354;28;20036;-79
2021/01/21 10:55:51;;;;;;;10.27;1.90;;;;;;;-144.05;100.00;64977.69;5092297;28;20203;-79
2021/01/21 10:58:17;;;;;;;12.00;2.05;;;;;;;-144.05;100.00;64977.69;5098294;28;20031;-79
2021/01/21 11:00:46;;;;;;;;;;;;;;;-144.05;100.00;64977.69;5098963;28;20141;-79
2021/01/21 11:03:12;;;;;;;10.57;2.20;;;;;;;-144.05;100.00;64977.69;5098403;28;19907;-79
2021/01/21 11:05:40;;;;;;;6.32;1.55;;;;;;;-144.05;100.00;64977.69;5091499;28;20035;-80
2021/01/21 11:08:05;;;;;;;8.43;1.70;;;;;;;-144.05;100.00;64977.69;5096818;28;20036;-80
2021/01/21 11:10:30;;;;;;;11.83;2.13;;;;;;;-144.05;100.00;64977.69;5098609;28;20313;-80
2021/01/21 11:12:59;;;;;;;9.83;2.50;;;;;;;-144.05;100.00;64977.69;5098250;28;20051;-80
2021/01/21 11:15:24;;;;;;;16.05;2.88;;;;;;;-144.05;100.00;64977.69;5078030;28;20114;-81
2021/01/21 11:17:50;;;;;;;10.07;1.83;;;;;;;-144.05;100.00;64977.69;5098913;28;20107;-79
2021/01/21 11:20:16;;;;;;;12.47;3.03;;;;;;;-144.05;100.00;64977.69;5100635;28;20026;-80
2021/01/21 11:22:44;;;;;;;7.82;1.77;;;;;;;-144.05;100.00;64977.69;5098264;28;20110;-80